Time;durP1;ratioP1;P1;durP2;ratioP2;P2;SDS_P1;SDS_P2;PMS_P1;PMS_P2;Temp;Humidity;BMP_temperature;BMP_pressure;BME280_temperature;BME280_humidity;BME280_pressure;Samples;Min_cycle;Max_cycle;Signal;HPM_P1;HPM_P2
2021/12/05 00:18:47;;;;;;;3.85;1.42;;;3.60;92.60;;;;;;4978951;28;20137;-79
2021/12/05 00:23:51;;;;;;;4.40;1.58;;;3.60;92.50;;;;;;5000681;28;20133;-80
2021/12/05 00:26:19;;;;;;;5.97;1.70;;;3.60;92.50;;;;;;4975601;28;20026;-81
2021/12/05 00:29:13;;;;;;;5.88;1.50;;;3.60;92.50;;;;;;5002176;28;20042;-79
2021/12/05 00:31:53;;;;;;;1.98;1.20;;;3.60;92.50;;;;;;4991904;28;20056;-81
2021/12/05 00:39:34;;;;;;;2.72;1.20;;;3.60;92.50;;;;;;4990242;28;20113;-81
2021/12/05 00:42:14;;;;;;;3.67;1.35;;;3.60;92.50;;;;;;4990874;28;20040;-78
2021/12/05 00:47:28;;;;;;;1.75;1.58;;;3.50;92.40;;;;;;4975854;28;20049;-80
2021/12/05 00:58:55;;;;;;;4.05;1.50;;;3.40;92.40;;;;;;4989118;28;20041;-80
2021/12/05 01:14:22;;;;;;;2.00;1.15;;;3.40;92.40;;;;;;4972541;28;20407;-81
2021/12/05 01:16:48;;;;;;;1.88;0.98;;;3.30;92.40;;;;;;4977041;28;20172;-81
2021/12/05 01:19:15;;;;;;;3.83;1.38;;;3.30;92.40;;;;;;4955015;28;20120;-81
2021/12/05 01:21:41;;;;;;;3.47;1.25;;;3.30;92.40;;;;;;4975386;28;20039;-81
2021/12/05 01:39:40;;;;;;;8.65;1.52;;;3.30;92.40;;;;;;4986853;28;20050;-80
2021/12/05 01:44:58;;;;;;;1.90;1.00;;;3.20;92.40;;;;;;4977154;28;20041;-81
2021/12/05 02:11:49;;;;;;;1.88;0.98;;;3.20;92.50;;;;;;4973467;28;20038;-80
2021/12/05 02:39:12;;;;;;;3.78;1.23;;;3.10;92.40;;;;;;4928870;29;20039;-81
2021/12/05 02:41:42;;;;;;;5.88;1.95;;;3.10;92.40;;;;;;4953530;28;20045;-81
2021/12/05 02:44:20;;;;;;;3.85;1.60;;;3.10;92.50;;;;;;4985189;28;20030;-81
2021/12/05 02:47:13;;;;;;;4.50;1.40;;;3.10;92.50;;;;;;4991362;28;20046;-81
2021/12/05 02:49:41;;;;;;;3.15;1.33;;;3.20;92.60;;;;;;5014298;28;20058;-81
2021/12/05 02:52:08;;;;;;;5.22;1.60;;;3.20;92.50;;;;;;5015239;28;20061;-81
2021/12/05 02:54:44;;;;;;;3.03;1.25;;;3.10;92.50;;;;;;4990598;28;20037;-81
2021/12/05 02:57:09;;;;;;;3.80;1.00;;;3.20;92.60;;;;;;4999427;28;20046;-81
2021/12/05 03:02:12;;;;;;;4.35;1.00;;;3.20;92.60;;;;;;5013493;28;20075;-81
2021/12/05 03:04:40;;;;;;;5.13;1.52;;;3.20;92.60;;;;;;5001810;28;20040;-81
2021/12/05 03:07:08;;;;;;;5.47;1.42;;;3.20;92.60;;;;;;4986936;28;20037;-81
2021/12/05 03:09:33;;;;;;;3.85;1.13;;;3.20;92.60;;;;;;5002364;28;20036;-79
2021/12/05 03:11:59;;;;;;;2.90;1.00;;;3.20;92.60;;;;;;4993773;28;20108;-79
2021/12/05 03:14:25;;;;;;;4.70;1.10;;;3.20;92.60;;;;;;5015006;28;20596;-81
2021/12/05 03:16:50;;;;;;;7.18;1.73;;;3.20;92.60;;;;;;5008275;28;20057;-81
2021/12/05 03:19:16;;;;;;;5.38;1.38;;;3.20;92.60;;;;;;5012124;28;20038;-81
2021/12/05 03:21:42;;;;;;;3.50;1.50;;;3.20;92.60;;;;;;4977375;28;20026;-81
2021/12/05 03:24:08;;;;;;;4.55;1.30;;;3.20;92.60;;;;;;4991722;28;20045;-81
2021/12/05 03:26:36;;;;;;;2.42;1.02;;;3.20;92.60;;;;;;5016420;28;20030;-80
2021/12/05 03:29:02;;;;;;;4.85;1.30;;;3.20;92.60;;;;;;5006648;28;20106;-82
2021/12/05 03:31:30;;;;;;;1.30;0.82;;;3.20;92.60;;;;;;4990337;28;20041;-81
2021/12/05 03:33:55;;;;;;;6.57;2.08;;;3.30;92.60;;;;;;5000498;28;20037;-81
2021/12/05 03:36:21;;;;;;;7.07;1.20;;;3.30;92.60;;;;;;5002046;28;20042;-81
2021/12/05 03:38:47;;;;;;;7.93;1.17;;;3.30;92.60;;;;;;4959450;28;20053;-82
2021/12/05 03:41:12;;;;;;;8.77;1.65;;;3.30;92.60;;;;;;5007216;28;20041;-80
2021/12/05 03:43:38;;;;;;;4.10;1.20;;;3.30;92.60;;;;;;4983851;28;20324;-82
2021/12/05 03:46:04;;;;;;;4.13;1.23;;;3.30;92.60;;;;;;4998855;28;20535;-82
2021/12/05 03:48:32;;;;;;;7.80;1.30;;;3.30;92.60;;;;;;4978908;28;20034;-81
2021/12/05 03:50:58;;;;;;;1.73;1.15;;;3.30;92.60;;;;;;5026022;28;20491;-80
2021/12/05 03:53:24;;;;;;;7.32;1.48;;;3.30;92.50;;;;;;5007420;28;20049;-82
2021/12/05 03:55:51;;;;;;;2.28;1.05;;;3.30;92.50;;;;;;4989260;28;20057;-81
2021/12/05 03:58:17;;;;;;;3.55;0.95;;;3.30;92.60;;;;;;5006243;28;20540;-80
2021/12/05 04:00:44;;;;;;;3.88;1.27;;;3.30;92.50;;;;;;4976930;28;20033;-80
2021/12/05 04:03:10;;;;;;;2.53;1.05;;;3.30;92.60;;;;;;4991265;28;20143;-80
2021/12/05 04:05:37;;;;;;;5.22;2.30;;;3.30;92.60;;;;;;4976204;28;20036;-81
2021/12/05 04:08:07;;;;;;;1.73;1.20;;;3.30;92.50;;;;;;4980797;28;20080;-81
2021/12/05 04:10:35;;;;;;;2.15;1.27;;;3.30;92.50;;;;;;4990799;28;20022;-81
2021/12/05 04:13:00;;;;;;;3.83;1.05;;;3.30;92.50;;;;;;5008683;28;20049;-81
2021/12/05 04:15:26;;;;;;;2.92;0.95;;;3.30;92.50;;;;;;4980339;28;20041;-81
2021/12/05 04:17:52;;;;;;;2.53;1.27;;;3.30;92.50;;;;;;5001227;28;20116;-81
2021/12/05 04:20:17;;;;;;;4.10;1.05;;;3.30;92.50;;;;;;4984596;28;20026;-82
2021/12/05 04:22:43;;;;;;;7.05;1.48;;;3.30;92.50;;;;;;4989339;28;20034;-81
2021/12/05 04:25:10;;;;;;;8.82;1.20;;;3.30;92.50;;;;;;4993788;28;20403;-81
2021/12/05 04:27:39;;;;;;;3.47;1.17;;;3.30;92.50;;;;;;4966753;28;20065;-80
2021/12/05 04:30:06;;;;;;;4.07;1.17;;;3.20;92.50;;;;;;4991281;28;20049;-81
2021/12/05 04:32:32;;;;;;;4.60;1.30;;;3.20;92.50;;;;;;5010743;28;20116;-80
2021/12/05 04:34:57;;;;;;;3.60;1.10;;;3.20;92.40;;;;;;4992385;28;20108;-81
2021/12/05 04:37:23;;;;;;;3.55;0.98;;;3.20;92.40;;;;;;5023956;28;20045;-80
2021/12/05 04:39:50;;;;;;;4.05;1.25;;;3.10;92.40;;;;;;4975929;28;20077;-82
2021/12/05 04:42:15;;;;;;;3.70;1.63;;;3.10;92.40;;;;;;5025072;28;20040;-81
2021/12/05 04:44:41;;;;;;;7.65;1.33;;;3.10;92.40;;;;;;5004339;28;20045;-81
2021/12/05 04:47:06;;;;;;;3.67;1.20;;;3.00;92.40;;;;;;4979138;28;20049;-81
2021/12/05 04:49:32;;;;;;;4.10;0.93;;;3.00;92.40;;;;;;4990107;28;20058;-81
2021/12/05 04:51:58;;;;;;;4.93;1.00;;;2.90;92.40;;;;;;4979437;28;20060;-80
2021/12/05 04:54:23;;;;;;;2.35;1.00;;;2.90;92.40;;;;;;4995301;28;20125;-80
2021/12/05 04:56:49;;;;;;;4.80;1.00;;;2.90;92.40;;;;;;5008191;28;20037;-81
2021/12/05 04:59:16;;;;;;;3.05;0.88;;;2.90;92.40;;;;;;4994308;28;20037;-81
2021/12/05 05:01:43;;;;;;;3.38;1.05;;;2.80;92.30;;;;;;4962080;28;20046;-79
2021/12/05 05:04:19;;;;;;;3.65;1.10;;;2.80;92.30;;;;;;5027478;28;20629;-79
2021/12/05 05:06:44;;;;;;;4.53;1.25;;;2.80;92.30;;;;;;4991446;28;20074;-79
2021/12/05 05:09:10;;;;;;;3.47;0.90;;;2.70;92.30;;;;;;5009603;28;20056;-79
2021/12/05 05:11:37;;;;;;;5.32;1.27;;;2.70;92.30;;;;;;5011057;28;20424;-79
2021/12/05 05:14:03;;;;;;;7.38;1.08;;;2.60;92.30;;;;;;4974175;28;20038;-79
2021/12/05 05:16:29;;;;;;;5.38;1.23;;;2.60;92.30;;;;;;4980808;28;20380;-79
2021/12/05 05:18:58;;;;;;;2.25;1.10;;;2.50;92.30;;;;;;4991728;28;20097;-79
2021/12/05 05:29:24;;;;;;;3.63;1.15;;;2.50;92.30;;;;;;4980750;28;20698;-79
2021/12/05 05:50:12;;;;;;;;;;;2.40;92.40;;;;;;5012359;28;20073;-79
2021/12/05 05:52:38;;;;;;;3.63;1.08;;;2.40;92.40;;;;;;4987785;28;19921;-80
2021/12/05 05:55:04;;;;;;;1.67;1.00;;;2.40;92.40;;;;;;4969035;28;20068;-79
2021/12/05 06:00:20;;;;;;;2.08;0.88;;;2.40;92.40;;;;;;5014542;28;20064;-80
2021/12/05 06:05:31;;;;;;;2.80;0.93;;;2.30;92.40;;;;;;5003118;28;20073;-79
2021/12/05 06:07:56;;;;;;;3.50;1.35;;;2.30;92.40;;;;;;4988513;28;20080;-80
2021/12/05 06:10:24;;;;;;;4.22;1.00;;;2.30;92.50;;;;;;5015970;28;20038;-80
2021/12/05 06:12:50;;;;;;;3.38;1.02;;;2.30;92.50;;;;;;4992824;28;20111;-79
2021/12/05 06:15:16;;;;;;;3.47;1.10;;;2.30;92.50;;;;;;4994674;28;20034;-80
2021/12/05 06:17:42;;;;;;;1.75;1.00;;;2.20;92.50;;;;;;4994352;28;20124;-80
2021/12/05 06:20:13;;;;;;;2.97;1.30;;;2.30;92.50;;;;;;4985561;28;20042;-81
2021/12/05 06:22:38;;;;;;;4.53;1.30;;;2.30;92.60;;;;;;5010926;28;20036;-81
2021/12/05 06:25:06;;;;;;;6.32;1.20;;;2.20;92.50;;;;;;4998953;28;20120;-81
2021/12/05 06:27:31;;;;;;;5.60;2.60;;;2.30;92.60;;;;;;4973439;28;20068;-81
2021/12/05 06:30:20;;;;;;;5.03;1.10;;;2.30;92.60;;;;;;4990877;28;20503;-82
2021/12/05 06:38:24;;;;;;;5.28;1.02;;;2.30;92.60;;;;;;5006579;28;20159;-81
2021/12/05 06:46:13;;;;;;;;;;;2.30;92.70;;;;;;5000136;28;20045;-79
2021/12/05 06:48:41;;;;;;;4.78;1.52;;;2.40;92.70;;;;;;4994944;28;19945;-79
2021/12/05 06:51:06;;;;;;;3.58;1.50;;;2.30;92.60;;;;;;4971724;28;20044;-81
2021/12/05 06:53:32;;;;;;;2.47;0.95;;;2.40;92.70;;;;;;4978040;28;20113;-80
2021/12/05 06:55:57;;;;;;;3.00;1.10;;;2.40;92.70;;;;;;4941880;28;20039;-77
2021/12/05 06:58:23;;;;;;;3.17;1.10;;;2.40;92.70;;;;;;5003437;28;20034;-79
2021/12/05 07:00:48;;;;;;;3.88;1.35;;;2.40;92.70;;;;;;4954929;28;20081;-77
2021/12/05 07:03:14;;;;;;;3.05;1.48;;;2.40;92.70;;;;;;4969045;28;20048;-79
2021/12/05 07:05:49;;;;;;;4.65;1.50;;;2.40;92.70;;;;;;4988705;28;20105;-79
2021/12/05 07:08:15;;;;;;;3.72;1.50;;;2.30;92.70;;;;;;4947554;28;20034;-78
2021/12/05 07:16:08;;;;;;;5.30;2.92;;;2.30;92.70;;;;;;4987552;28;20038;-80
2021/12/05 07:18:43;;;;;;;5.63;2.60;;;2.30;92.70;;;;;;4965922;28;20064;-81
2021/12/05 07:22:16;;;;;;;5.18;1.90;;;2.20;92.60;;;;;;4962758;28;20080;-80
2021/12/05 07:42:42;;;;;;;21.98;9.60;;;2.10;92.60;;;;;;4967018;28;20037;-79
2021/12/05 07:45:10;;;;;;;17.25;9.25;;;2.10;92.60;;;;;;4979579;28;20039;-82
2021/12/05 07:47:38;;;;;;;15.40;6.07;;;2.10;92.60;;;;;;4962398;28;20061;-80
2021/12/05 07:50:06;;;;;;;11.15;4.63;;;2.00;92.60;;;;;;4973708;28;20124;-81
2021/12/05 07:52:33;;;;;;;12.00;5.85;;;2.00;92.60;;;;;;4975945;28;20030;-82
2021/12/05 07:55:11;;;;;;;12.07;6.57;;;2.00;92.60;;;;;;4978662;28;20037;-80
2021/12/05 07:58:06;;;;;;;9.10;5.13;;;2.00;92.60;;;;;;4969680;28;20157;-82
2021/12/05 08:00:57;;;;;;;8.52;4.75;;;2.00;92.70;;;;;;4956934;28;20073;-81
2021/12/05 08:16:51;;;;;;;8.45;3.45;;;2.00;92.80;;;;;;4961105;28;20052;-80
2021/12/05 08:19:18;;;;;;;9.00;2.70;;;2.00;92.80;;;;;;4973864;28;20532;-80
2021/12/05 08:21:45;;;;;;;5.60;2.78;;;2.10;92.80;;;;;;4959551;28;20041;-78
2021/12/05 08:24:10;;;;;;;5.18;2.88;;;2.10;92.80;;;;;;4963985;28;21471;-80
2021/12/05 08:26:36;;;;;;;9.68;3.95;;;2.10;92.90;;;;;;4958737;28;20155;-80
2021/12/05 08:29:13;;;;;;;12.13;5.38;;;2.20;92.90;;;;;;4960841;28;20034;-80
2021/12/05 08:34:39;;;;;;;8.57;4.57;;;2.30;92.90;;;;;;4981834;28;20041;-80
2021/12/05 09:21:26;;;;;;;14.10;6.28;;;3.60;93.40;;;;;;4900006;29;20196;-79
2021/12/05 09:29:16;;;;;;;14.95;8.15;;;4.00;93.00;;;;;;4972429;28;20107;-82
2021/12/05 09:40:10;;;;;;;6.55;3.72;;;4.40;92.80;;;;;;4945088;28;20045;-81
2021/12/05 09:52:11;;;;;;;3.72;2.15;;;4.60;92.70;;;;;;4963602;28;20044;-80
2021/12/05 10:07:16;;;;;;;9.85;5.05;;;5.00;92.50;;;;;;4978393;28;20048;-80
2021/12/05 10:12:43;;;;;;;7.70;2.38;;;5.10;92.40;;;;;;4976582;28;20034;-80
2021/12/05 10:18:45;;;;;;;2.35;2.08;;;5.30;92.30;;;;;;4986371;28;20049;-79
2021/12/05 10:38:04;;;;;;;4.90;2.47;;;5.70;91.90;;;;;;4959481;28;20117;-80
2021/12/05 10:40:36;;;;;;;3.03;1.30;;;5.70;91.90;;;;;;4961377;28;20089;-80
2021/12/05 10:43:02;;;;;;;8.13;3.20;;;5.80;91.80;;;;;;4982232;28;20061;-82
2021/12/05 10:45:51;;;;;;;3.03;2.03;;;5.80;91.80;;;;;;4965934;28;20050;-82
2021/12/05 10:48:25;;;;;;;4.72;2.00;;;5.80;91.70;;;;;;4973094;28;20053;-81
2021/12/05 10:51:10;;;;;;;2.95;1.90;;;5.90;91.70;;;;;;4975290;28;20756;-81
2021/12/05 10:53:43;;;;;;;3.63;1.80;;;5.90;91.60;;;;;;4982559;28;20125;-80
2021/12/05 10:56:22;;;;;;;2.92;1.70;;;6.00;91.70;;;;;;4976742;28;20796;-81
2021/12/05 10:59:11;;;;;;;1.80;1.33;;;6.10;91.60;;;;;;4965865;28;20074;-81
2021/12/05 11:01:36;;;;;;;5.40;2.10;;;6.30;91.50;;;;;;4974521;28;20069;-79
2021/12/05 11:04:07;;;;;;;3.13;1.98;;;6.30;91.50;;;;;;4960001;28;20484;-79
2021/12/05 11:06:52;;;;;;;4.47;2.08;;;6.40;91.50;;;;;;4958850;28;20042;-78
2021/12/05 11:09:48;;;;;;;3.30;2.05;;;6.50;91.40;;;;;;4978439;28;20045;-79
2021/12/05 11:12:17;;;;;;;3.05;2.15;;;6.50;91.20;;;;;;4967307;28;20053;-79
2021/12/05 11:14:44;;;;;;;3.80;1.50;;;6.60;91.30;;;;;;4982748;28;20122;-79
2021/12/05 11:17:10;;;;;;;8.27;3.58;;;6.60;91.20;;;;;;4968291;28;20052;-78
2021/12/05 11:19:42;;;;;;;9.88;4.20;;;6.70;91.20;;;;;;4978675;28;20042;-79
2021/12/05 11:22:20;;;;;;;7.95;2.70;;;6.80;91.30;;;;;;4976689;28;20096;-78
2021/12/05 11:24:52;;;;;;;3.45;2.13;;;7.00;91.30;;;;;;4953163;28;20181;-81
2021/12/05 11:27:43;;;;;;;5.30;2.13;;;7.20;91.20;;;;;;4966293;28;20599;-80
2021/12/05 11:30:17;;;;;;;4.57;1.70;;;7.50;91.00;;;;;;4964821;28;20033;-80
2021/12/05 11:32:45;;;;;;;3.30;1.25;;;7.70;91.00;;;;;;4951968;28;20034;-80
2021/12/05 11:35:16;;;;;;;4.43;1.83;;;7.80;90.70;;;;;;4985643;28;20045;-78
2021/12/05 11:37:55;;;;;;;2.53;2.00;;;7.90;90.50;;;;;;4945428;28;20076;-80
2021/12/05 11:40:22;;;;;;;1.70;1.40;;;7.80;90.00;;;;;;4986288;28;20555;-80
2021/12/05 11:42:52;;;;;;;4.60;1.40;;;7.80;90.10;;;;;;4968782;28;20045;-79
2021/12/05 11:45:18;;;;;;;5.78;2.05;;;7.80;90.00;;;;;;4955367;28;20575;-79
2021/12/05 11:47:44;;;;;;;7.63;3.17;;;7.70;90.00;;;;;;4979084;28;20085;-80
2021/12/05 11:50:10;;;;;;;8.25;3.33;;;7.70;90.00;;;;;;4980384;28;20066;-80
2021/12/05 11:52:39;;;;;;;5.85;1.65;;;7.70;90.00;;;;;;4950557;28;20027;-80
2021/12/05 11:55:06;;;;;;;5.65;2.05;;;7.60;89.70;;;;;;4994189;28;20038;-79
2021/12/05 11:57:32;;;;;;;4.43;2.05;;;7.70;89.60;;;;;;4964550;28;20038;-79
2021/12/05 12:00:00;;;;;;;3.15;1.50;;;7.60;89.70;;;;;;4977048;28;20111;-78
2021/12/05 12:02:37;;;;;;;1.95;1.00;;;7.60;89.70;;;;;;4957416;28;20045;-79
2021/12/05 12:05:14;;;;;;;2.38;1.05;;;7.60;89.50;;;;;;4965313;28;20046;-80
2021/12/05 12:07:40;;;;;;;5.70;2.45;;;7.60;89.20;;;;;;4950313;28;20037;-78
2021/12/05 12:10:36;;;;;;;6.47;2.17;;;7.50;89.30;;;;;;4996479;28;20041;-78
2021/12/05 12:13:04;;;;;;;7.10;3.05;;;7.50;88.90;;;;;;4961905;28;20047;-80
2021/12/05 12:15:30;;;;;;;10.98;4.95;;;7.50;89.30;;;;;;4988518;28;20529;-80
2021/12/05 12:18:06;;;;;;;3.83;2.47;;;7.50;89.20;;;;;;4977031;28;20046;-78
2021/12/05 12:20:33;;;;;;;11.57;5.45;;;7.50;89.00;;;;;;4975824;28;20050;-80
2021/12/05 12:22:59;;;;;;;26.25;9.45;;;7.50;89.00;;;;;;4969948;28;20069;-80
2021/12/05 12:25:30;;;;;;;12.85;4.88;;;7.60;89.00;;;;;;4977134;28;20038;-80
2021/12/05 12:27:55;;;;;;;17.00;6.40;;;7.60;88.80;;;;;;4917164;28;20517;-79
2021/12/05 12:30:24;;;;;;;11.52;5.03;;;7.60;88.70;;;;;;4965786;28;20045;-79
2021/12/05 12:32:55;;;;;;;7.18;2.60;;;7.60;89.50;;;;;;4950080;28;20503;-80
2021/12/05 12:35:24;;;;;;;7.97;2.70;;;7.60;88.60;;;;;;4956950;28;20052;-79
2021/12/05 12:37:59;;;;;;;5.70;3.30;;;7.60;88.40;;;;;;4949665;28;20046;-80
2021/12/05 12:40:33;;;;;;;3.72;1.52;;;7.60;88.00;;;;;;4972411;28;20066;-80
2021/12/05 12:42:58;;;;;;;3.50;1.65;;;7.60;87.90;;;;;;4960068;28;20039;-80
2021/12/05 12:45:24;;;;;;;3.95;1.92;;;7.60;88.10;;;;;;4951868;28;20127;-79
2021/12/05 12:47:58;;;;;;;3.97;1.95;;;7.60;88.10;;;;;;4999198;28;20072;-80
2021/12/05 12:50:34;;;;;;;2.67;1.50;;;7.60;87.90;;;;;;4956849;28;20591;-80
2021/12/05 12:53:00;;;;;;;2.47;1.17;;;7.70;87.60;;;;;;4983474;28;20034;-82
2021/12/05 12:55:30;;;;;;;4.03;1.42;;;7.60;87.60;;;;;;5007088;28;20042;-82
2021/12/05 12:57:56;;;;;;;3.88;1.85;;;7.60;87.50;;;;;;4996893;28;20049;-82
2021/12/05 13:00:22;;;;;;;3.40;1.40;;;7.70;87.40;;;;;;4982595;28;20044;-82
2021/12/05 13:02:57;;;;;;;5.20;1.80;;;7.70;87.50;;;;;;5002561;28;20057;-81
2021/12/05 13:11:17;;;;;;;4.35;1.30;;;7.60;87.00;;;;;;5013587;28;20041;-81
2021/12/05 13:13:45;;;;;;;2.38;1.55;;;7.60;87.20;;;;;;4958846;28;20072;-80
2021/12/05 13:16:13;;;;;;;3.47;1.05;;;7.60;87.20;;;;;;4981983;28;20534;-82
2021/12/05 13:18:40;;;;;;;2.15;1.50;;;7.60;87.20;;;;;;4977874;28;20527;-82
2021/12/05 13:21:08;;;;;;;4.15;1.73;;;7.60;87.30;;;;;;5006200;28;20042;-81
2021/12/05 13:23:45;;;;;;;7.55;2.92;;;7.60;87.20;;;;;;4969017;28;20039;-82
2021/12/05 13:26:40;;;;;;;4.25;1.88;;;7.50;86.70;;;;;;4970461;28;20061;-82
2021/12/05 13:29:18;;;;;;;2.67;1.33;;;7.50;86.60;;;;;;4999806;28;20034;-82
2021/12/05 13:31:45;;;;;;;4.10;1.30;;;7.50;86.80;;;;;;4987163;28;20416;-82
2021/12/05 13:34:17;;;;;;;3.67;1.42;;;7.50;86.90;;;;;;5006765;28;20045;-81
2021/12/05 13:36:44;;;;;;;4.13;1.70;;;7.40;86.70;;;;;;4980770;28;20046;-82
2021/12/05 13:39:47;;;;;;;3.70;1.15;;;7.50;86.90;;;;;;4972554;28;20034;-81
2021/12/05 13:42:27;;;;;;;4.00;1.40;;;7.40;86.50;;;;;;4995371;28;20026;-82
2021/12/05 13:45:08;;;;;;;2.92;1.10;;;7.40;86.60;;;;;;4985797;28;20584;-81
2021/12/05 13:48:07;;;;;;;3.05;1.00;;;7.40;86.40;;;;;;4984020;28;20065;-82
2021/12/05 13:50:51;;;;;;;2.63;0.90;;;7.40;86.60;;;;;;4988047;28;20108;-82
2021/12/05 13:53:21;;;;;;;5.25;1.00;;;7.40;86.70;;;;;;5008596;28;20034;-82
2021/12/05 13:56:01;;;;;;;3.47;1.17;;;7.40;86.90;;;;;;4974904;28;20037;-82
2021/12/05 13:58:33;;;;;;;3.33;1.15;;;7.40;86.70;;;;;;4981497;28;20049;-81
2021/12/05 14:01:14;;;;;;;6.53;2.85;;;7.40;86.80;;;;;;5011503;28;20058;-81
2021/12/05 14:03:44;;;;;;;3.72;1.20;;;7.30;86.50;;;;;;5006001;28;20068;-82
2021/12/05 14:06:25;;;;;;;2.13;1.17;;;7.40;86.80;;;;;;5014038;28;20097;-82
2021/12/05 14:08:52;;;;;;;2.53;1.58;;;7.40;86.50;;;;;;5009573;28;20042;-83
2021/12/05 14:11:18;;;;;;;5.72;1.70;;;7.40;86.70;;;;;;4979750;28;20034;-82
2021/12/05 14:13:44;;;;;;;3.30;1.27;;;7.40;86.70;;;;;;5000809;28;20045;-82
2021/12/05 14:16:10;;;;;;;2.53;1.38;;;7.30;86.60;;;;;;5009399;28;20034;-80
2021/12/05 14:18:35;;;;;;;4.30;1.95;;;7.30;86.50;;;;;;4992584;28;20130;-81
2021/12/05 14:21:15;;;;;;;2.60;1.60;;;7.30;86.40;;;;;;4991361;28;21079;-80
2021/12/05 14:23:50;;;;;;;3.88;1.67;;;7.20;86.00;;;;;;4979102;28;20159;-81
2021/12/05 14:26:16;;;;;;;4.40;1.63;;;7.20;86.40;;;;;;4990812;28;20033;-81
2021/12/05 14:28:42;;;;;;;3.45;2.00;;;7.20;86.50;;;;;;4999239;28;20030;-81
2021/12/05 14:31:08;;;;;;;2.38;1.67;;;7.10;86.60;;;;;;4977085;28;20096;-80
2021/12/05 14:33:50;;;;;;;3.85;1.52;;;7.10;86.40;;;;;;4977874;28;20098;-81
2021/12/05 14:36:26;;;;;;;3.40;1.52;;;7.10;86.30;;;;;;4992869;28;20093;-82
2021/12/05 14:39:11;;;;;;;3.25;1.08;;;7.00;86.40;;;;;;4985970;28;20113;-81
2021/12/05 14:41:37;;;;;;;1.55;1.10;;;7.00;86.40;;;;;;4992458;28;20041;-81
2021/12/05 14:44:03;;;;;;;3.83;1.65;;;7.00;86.60;;;;;;4973621;28;20048;-80
2021/12/05 14:46:29;;;;;;;1.90;1.27;;;7.00;86.60;;;;;;4977320;28;20038;-82
2021/12/05 14:48:56;;;;;;;4.10;1.38;;;6.90;86.60;;;;;;4958907;28;20093;-81
2021/12/05 14:51:35;;;;;;;4.22;1.98;;;6.90;86.60;;;;;;4989421;28;20026;-81
2021/12/05 14:54:01;;;;;;;5.88;1.90;;;6.90;86.50;;;;;;5009740;28;20616;-81
2021/12/05 14:56:28;;;;;;;2.95;1.63;;;6.90;86.70;;;;;;5000652;28;20077;-81
2021/12/05 14:59:12;;;;;;;3.35;1.67;;;6.80;87.50;;;;;;4973170;28;20029;-82
2021/12/05 15:01:38;;;;;;;4.25;1.98;;;6.80;86.70;;;;;;4945725;28;20030;-82
2021/12/05 15:04:06;;;;;;;5.47;2.78;;;6.80;86.70;;;;;;4983134;28;20566;-81
2021/12/05 15:06:35;;;;;;;6.18;3.22;;;6.80;86.80;;;;;;4993066;28;20535;-82
2021/12/05 15:09:03;;;;;;;7.85;3.60;;;6.70;86.80;;;;;;4952022;28;20053;-81
2021/12/05 15:11:28;;;;;;;5.75;2.70;;;6.70;86.90;;;;;;4966288;28;20073;-80
2021/12/05 15:14:05;;;;;;;5.60;2.45;;;6.70;87.00;;;;;;5005523;28;20030;-82
2021/12/05 15:16:30;;;;;;;6.07;2.90;;;6.60;87.00;;;;;;4962326;28;20128;-80
2021/12/05 15:18:56;;;;;;;7.65;3.15;;;6.60;87.10;;;;;;4953175;28;20121;-80
2021/12/05 15:21:21;;;;;;;5.05;2.60;;;6.60;87.20;;;;;;4974414;28;20041;-79
2021/12/05 15:23:47;;;;;;;5.47;3.10;;;6.60;87.30;;;;;;4959266;28;20042;-80
2021/12/05 15:26:14;;;;;;;5.72;3.30;;;6.60;87.40;;;;;;4944557;28;20627;-80
2021/12/05 15:28:40;;;;;;;11.63;6.07;;;6.50;87.40;;;;;;4997149;28;20638;-80
2021/12/05 15:31:05;;;;;;;10.32;4.75;;;6.50;87.40;;;;;;4989406;28;20027;-79
2021/12/05 15:33:33;;;;;;;25.27;9.80;;;6.40;87.40;;;;;;4935720;28;20046;-80
2021/12/05 15:35:59;;;;;;;32.38;11.38;;;6.40;87.50;;;;;;4988687;28;20038;-80
2021/12/05 15:38:27;;;;;;;17.02;6.93;;;6.40;87.60;;;;;;4970713;28;20031;-80
2021/12/05 15:40:54;;;;;;;9.57;4.95;;;6.40;87.70;;;;;;4950605;28;20627;-79
2021/12/05 15:43:27;;;;;;;9.48;3.95;;;6.30;87.70;;;;;;4991396;28;20030;-80
2021/12/05 15:45:54;;;;;;;10.07;4.60;;;6.30;87.80;;;;;;4960318;28;20449;-80
2021/12/05 15:48:28;;;;;;;12.95;4.25;;;6.20;87.80;;;;;;4985896;28;20041;-80
2021/12/05 15:50:54;;;;;;;9.73;3.78;;;6.20;87.90;;;;;;4982492;28;20042;-80
2021/12/05 15:53:20;;;;;;;9.13;3.25;;;6.10;87.90;;;;;;4971759;28;20071;-79
2021/12/05 15:55:51;;;;;;;4.07;1.60;;;6.20;88.00;;;;;;4978488;28;20049;-80
2021/12/05 15:58:20;;;;;;;;;;;6.20;88.10;;;;;;4953206;28;20129;-79
2021/12/05 16:00:51;;;;;;;9.55;5.03;;;6.10;88.10;;;;;;4965636;28;20284;-78
2021/12/05 16:03:25;;;;;;;2.60;2.30;;;6.10;88.10;;;;;;4952312;28;20035;-80
2021/12/05 16:06:00;;;;;;;2.97;0.68;;;6.10;88.20;;;;;;4976318;28;20508;-78
2021/12/05 16:08:29;;;;;;;4.70;2.70;;;6.10;88.20;;;;;;4978445;28;20034;-80
2021/12/05 16:10:59;;;;;;;3.05;1.88;;;6.00;88.20;;;;;;4945247;28;20065;-80
2021/12/05 16:13:33;;;;;;;2.00;0.80;;;6.00;88.40;;;;;;4981146;28;20702;-79
2021/12/05 16:16:13;;;;;;;2.35;0.60;;;6.00;88.40;;;;;;4964844;28;20065;-80
2021/12/05 16:18:40;;;;;;;1.65;0.65;;;6.00;88.60;;;;;;4973120;28;20042;-78
2021/12/05 16:21:28;;;;;;;2.13;1.08;;;5.90;88.50;;;;;;4973703;28;20038;-79
2021/12/05 16:23:55;;;;;;;2.25;0.88;;;5.90;88.60;;;;;;4992558;28;20093;-79
2021/12/05 16:26:25;;;;;;;2.17;1.20;;;5.90;88.70;;;;;;4967821;28;20041;-79
2021/12/05 16:28:55;;;;;;;2.50;1.43;;;5.80;88.70;;;;;;4964839;28;20078;-78
2021/12/05 16:31:30;;;;;;;2.05;0.80;;;5.80;88.80;;;;;;4950754;28;20288;-78
2021/12/05 16:33:59;;;;;;;2.15;0.60;;;5.80;88.90;;;;;;4981779;28;20030;-79
2021/12/05 16:36:42;;;;;;;2.97;1.75;;;5.70;88.90;;;;;;4945223;28;20065;-78
2021/12/05 16:39:10;;;;;;;5.18;3.08;;;5.70;89.00;;;;;;4982007;28;20121;-79
2021/12/05 16:41:36;;;;;;;4.93;3.40;;;5.70;89.10;;;;;;4970084;28;20531;-79
2021/12/05 16:44:09;;;;;;;2.35;1.80;;;5.60;89.10;;;;;;4976589;28;20031;-80
2021/12/05 16:46:38;;;;;;;2.70;1.95;;;5.60;89.20;;;;;;4969984;28;20104;-79
2021/12/05 16:49:06;;;;;;;5.28;2.97;;;5.60;89.20;;;;;;4973729;28;20022;-80
2021/12/05 16:51:34;;;;;;;3.72;2.78;;;5.50;89.30;;;;;;4983133;28;20156;-79
2021/12/05 16:54:25;;;;;;;3.55;2.50;;;5.50;89.40;;;;;;4998081;28;20030;-79
2021/12/05 16:57:00;;;;;;;2.60;2.00;;;5.50;89.60;;;;;;4979663;28;20087;-79
2021/12/05 16:59:39;;;;;;;8.65;5.25;;;5.40;89.60;;;;;;5000515;28;20046;-79
2021/12/05 17:02:07;;;;;;;3.30;1.40;;;5.40;89.70;;;;;;4965492;28;20229;-80
2021/12/05 17:04:50;;;;;;;1.67;1.20;;;5.40;89.70;;;;;;5001311;28;20034;-79
2021/12/05 17:07:35;;;;;;;5.68;2.88;;;5.30;89.60;;;;;;4983070;28;20667;-79
2021/12/05 17:10:01;;;;;;;5.78;3.20;;;5.40;89.70;;;;;;4969452;28;20030;-80
2021/12/05 17:12:28;;;;;;;11.05;4.47;;;5.30;89.70;;;;;;4940923;28;20492;-79
2021/12/05 17:15:12;;;;;;;17.63;8.50;;;5.30;89.80;;;;;;4993910;28;20053;-80
2021/12/05 17:17:37;;;;;;;10.95;6.07;;;5.30;90.00;;;;;;4952496;28;20037;-79
2021/12/05 17:20:17;;;;;;;5.03;3.13;;;5.30;90.00;;;;;;4997788;28;20029;-79
2021/12/05 17:22:51;;;;;;;4.88;1.95;;;5.30;90.00;;;;;;4989053;28;20114;-80
2021/12/05 17:25:33;;;;;;;1.60;1.10;;;5.30;90.00;;;;;;4995358;28;20116;-79
2021/12/05 17:28:00;;;;;;;1.33;0.75;;;5.20;90.00;;;;;;4980507;28;20056;-79
2021/12/05 17:30:25;;;;;;;1.30;0.70;;;5.20;90.00;;;;;;4974187;28;20037;-79
2021/12/05 17:32:51;;;;;;;1.60;0.57;;;5.20;90.00;;;;;;4971806;28;20104;-79
2021/12/05 17:35:16;;;;;;;0.77;0.50;;;5.20;90.00;;;;;;4974845;28;20696;-80
2021/12/05 17:37:46;;;;;;;1.35;0.70;;;5.10;90.00;;;;;;4985778;28;20615;-79
2021/12/05 17:40:11;;;;;;;2.50;0.90;;;5.10;90.00;;;;;;4975172;28;20096;-79
2021/12/05 17:42:38;;;;;;;2.60;1.50;;;5.10;90.00;;;;;;4964517;28;20042;-79
2021/12/05 17:45:06;;;;;;;2.10;0.80;;;5.10;90.10;;;;;;4976947;28;20045;-79
2021/12/05 17:47:32;;;;;;;1.20;1.00;;;5.00;90.10;;;;;;4993175;28;20535;-80
2021/12/05 17:49:59;;;;;;;2.00;1.00;;;5.00;90.10;;;;;;4996333;28;20041;-81
2021/12/05 17:52:25;;;;;;;1.63;0.70;;;5.00;90.10;;;;;;4972769;28;20056;-80
2021/12/05 17:57:30;;;;;;;1.38;0.93;;;5.00;90.20;;;;;;5010272;28;20061;-80
2021/12/05 18:00:11;;;;;;;1.00;0.68;;;5.00;90.20;;;;;;5011985;28;20033;-80
2021/12/05 18:05:10;;;;;;;;;;;5.00;90.20;;;;;;4983689;28;20042;-77
2021/12/05 18:07:35;;;;;;;1.95;0.60;;;5.00;90.30;;;;;;4986324;28;20290;-79
2021/12/05 18:10:02;;;;;;;6.22;0.70;;;5.00;90.20;;;;;;4988385;28;20038;-79
2021/12/05 18:12:35;;;;;;;1.58;0.57;;;4.90;90.20;;;;;;4961670;28;20050;-79
2021/12/05 18:15:03;;;;;;;2.58;1.15;;;4.90;90.20;;;;;;4985041;28;20040;-80
2021/12/05 18:17:29;;;;;;;2.65;1.58;;;4.90;90.30;;;;;;5006637;28;20056;-79
2021/12/05 18:19:55;;;;;;;7.07;3.25;;;4.80;90.30;;;;;;4978795;28;20033;-80
2021/12/05 18:22:20;;;;;;;3.40;1.50;;;4.90;90.30;;;;;;4988309;28;20441;-80
2021/12/05 18:24:46;;;;;;;0.93;0.70;;;4.80;90.30;;;;;;5002611;28;20075;-80
2021/12/05 18:27:11;;;;;;;2.50;1.00;;;4.80;90.30;;;;;;4990715;28;20045;-81
2021/12/05 18:29:37;;;;;;;2.28;1.52;;;4.80;90.40;;;;;;5006306;28;20056;-80
2021/12/05 18:32:03;;;;;;;5.40;3.15;;;4.80;90.40;;;;;;5018723;28;20403;-78